sensor_id;sensor_type;location;lat;lon;timestamp;P1;durP1;ratioP1;P2;durP2;ratioP2
33794;SDS011;51430;52.242;21.118;2023-02-26T00:01:55;4.10;;;3.70;;
33794;SDS011;51430;52.242;21.118;2023-02-26T00:04:47;4.10;;;3.80;;
33794;SDS011;51430;52.242;21.118;2023-02-26T00:07:34;4.30;;;3.90;;
33794;SDS011;51430;52.242;21.118;2023-02-26T00:10:21;4.30;;;3.90;;
33794;SDS011;51430;52.242;21.118;2023-02-26T00:13:10;4.00;;;3.60;;
33794;SDS011;51430;52.242;21.118;2023-02-26T00:16:00;3.80;;;3.50;;
33794;SDS011;51430;52.242;21.118;2023-02-26T00:18:47;3.80;;;3.50;;
33794;SDS011;51430;52.242;21.118;2023-02-26T00:21:34;3.40;;;3.10;;
33794;SDS011;51430;52.242;21.118;2023-02-26T00:24:21;3.80;;;3.50;;
33794;SDS011;51430;52.242;21.118;2023-02-26T00:27:08;3.90;;;3.60;;
33794;SDS011;51430;52.242;21.118;2023-02-26T00:29:56;4.10;;;3.70;;
33794;SDS011;51430;52.242;21.118;2023-02-26T00:32:43;4.50;;;4.10;;
33794;SDS011;51430;52.242;21.118;2023-02-26T00:35:31;4.30;;;3.90;;
33794;SDS011;51430;52.242;21.118;2023-02-26T00:38:18;4.30;;;4.00;;
33794;SDS011;51430;52.242;21.118;2023-02-26T00:41:04;4.50;;;4.10;;
33794;SDS011;51430;52.242;21.118;2023-02-26T00:43:53;4.20;;;3.90;;
33794;SDS011;51430;52.242;21.118;2023-02-26T00:46:45;4.90;;;4.50;;
33794;SDS011;51430;52.242;21.118;2023-02-26T00:49:50;4.30;;;4.00;;
33794;SDS011;51430;52.242;21.118;2023-02-26T00:55:46;4.40;;;4.00;;
33794;SDS011;51430;52.242;21.118;2023-02-26T00:58:32;4.40;;;4.00;;
33794;SDS011;51430;52.242;21.118;2023-02-26T01:01:21;4.40;;;4.00;;
33794;SDS011;51430;52.242;21.118;2023-02-26T01:04:09;4.00;;;3.70;;
33794;SDS011;51430;52.242;21.118;2023-02-26T01:07:00;4.00;;;3.70;;
33794;SDS011;51430;52.242;21.118;2023-02-26T01:09:47;3.80;;;3.50;;
33794;SDS011;51430;52.242;21.118;2023-02-26T01:12:34;4.20;;;3.80;;
33794;SDS011;51430;52.242;21.118;2023-02-26T01:15:24;4.20;;;3.70;;
33794;SDS011;51430;52.242;21.118;2023-02-26T01:18:13;3.50;;;3.20;;
33794;SDS011;51430;52.242;21.118;2023-02-26T01:21:04;3.70;;;3.40;;
33794;SDS011;51430;52.242;21.118;2023-02-26T01:23:58;3.60;;;3.30;;
33794;SDS011;51430;52.242;21.118;2023-02-26T01:26:50;4.10;;;3.80;;
33794;SDS011;51430;52.242;21.118;2023-02-26T01:29:38;3.50;;;3.20;;
33794;SDS011;51430;52.242;21.118;2023-02-26T01:32:40;3.40;;;3.10;;
33794;SDS011;51430;52.242;21.118;2023-02-26T01:39:23;3.60;;;3.30;;
33794;SDS011;51430;52.242;21.118;2023-02-26T01:42:11;3.50;;;3.20;;
33794;SDS011;51430;52.242;21.118;2023-02-26T01:45:12;3.80;;;3.50;;
33794;SDS011;51430;52.242;21.118;2023-02-26T01:48:15;3.90;;;3.60;;
33794;SDS011;51430;52.242;21.118;2023-02-26T01:51:11;3.90;;;3.60;;
33794;SDS011;51430;52.242;21.118;2023-02-26T01:53:58;3.90;;;3.50;;
33794;SDS011;51430;52.242;21.118;2023-02-26T01:56:46;3.80;;;3.50;;
33794;SDS011;51430;52.242;21.118;2023-02-26T01:59:38;3.90;;;3.60;;
33794;SDS011;51430;52.242;21.118;2023-02-26T02:02:28;4.00;;;3.70;;
33794;SDS011;51430;52.242;21.118;2023-02-26T02:05:17;3.90;;;3.60;;
33794;SDS011;51430;52.242;21.118;2023-02-26T02:08:12;4.20;;;3.80;;
33794;SDS011;51430;52.242;21.118;2023-02-26T02:11:00;3.80;;;3.50;;
33794;SDS011;51430;52.242;21.118;2023-02-26T02:14:11;3.80;;;3.50;;
33794;SDS011;51430;52.242;21.118;2023-02-26T02:17:11;4.00;;;3.70;;
33794;SDS011;51430;52.242;21.118;2023-02-26T02:23:35;4.20;;;3.80;;
33794;SDS011;51430;52.242;21.118;2023-02-26T02:32:48;4.50;;;4.10;;
33794;SDS011;51430;52.242;21.118;2023-02-26T02:35:54;4.40;;;4.00;;
33794;SDS011;51430;52.242;21.118;2023-02-26T02:38:47;4.20;;;3.90;;
33794;SDS011;51430;52.242;21.118;2023-02-26T02:41:37;4.60;;;4.20;;
33794;SDS011;51430;52.242;21.118;2023-02-26T02:44:31;4.20;;;3.90;;
33794;SDS011;51430;52.242;21.118;2023-02-26T02:47:23;4.20;;;3.90;;
33794;SDS011;51430;52.242;21.118;2023-02-26T02:50:13;4.30;;;3.90;;
33794;SDS011;51430;52.242;21.118;2023-02-26T02:53:20;4.10;;;3.80;;
33794;SDS011;51430;52.242;21.118;2023-02-26T02:56:13;4.20;;;3.80;;
33794;SDS011;51430;52.242;21.118;2023-02-26T02:59:14;4.50;;;4.10;;
33794;SDS011;51430;52.242;21.118;2023-02-26T03:02:06;4.10;;;3.70;;
33794;SDS011;51430;52.242;21.118;2023-02-26T03:04:59;4.40;;;4.00;;
33794;SDS011;51430;52.242;21.118;2023-02-26T03:07:58;4.50;;;4.20;;
33794;SDS011;51430;52.242;21.118;2023-02-26T03:11:11;4.40;;;3.90;;
33794;SDS011;51430;52.242;21.118;2023-02-26T03:13:58;4.70;;;4.30;;
33794;SDS011;51430;52.242;21.118;2023-02-26T03:16:51;4.90;;;4.50;;
33794;SDS011;51430;52.242;21.118;2023-02-26T03:23:08;4.70;;;4.30;;
33794;SDS011;51430;52.242;21.118;2023-02-26T03:26:04;5.10;;;4.60;;
33794;SDS011;51430;52.242;21.118;2023-02-26T03:29:07;4.70;;;4.30;;
33794;SDS011;51430;52.242;21.118;2023-02-26T03:32:02;4.90;;;4.50;;
33794;SDS011;51430;52.242;21.118;2023-02-26T03:34:58;4.00;;;3.70;;
33794;SDS011;51430;52.242;21.118;2023-02-26T03:37:50;4.70;;;4.30;;
33794;SDS011;51430;52.242;21.118;2023-02-26T03:40:42;4.00;;;3.70;;
33794;SDS011;51430;52.242;21.118;2023-02-26T03:43:37;3.50;;;3.20;;
33794;SDS011;51430;52.242;21.118;2023-02-26T03:46:32;3.50;;;3.20;;
33794;SDS011;51430;52.242;21.118;2023-02-26T03:49:31;3.40;;;3.10;;
33794;SDS011;51430;52.242;21.118;2023-02-26T03:56:51;2.70;;;2.50;;
33794;SDS011;51430;52.242;21.118;2023-02-26T03:59:38;2.50;;;2.30;;
33794;SDS011;51430;52.242;21.118;2023-02-26T04:02:30;3.00;;;2.70;;
33794;SDS011;51430;52.242;21.118;2023-02-26T04:05:30;2.70;;;2.50;;
33794;SDS011;51430;52.242;21.118;2023-02-26T04:08:21;2.60;;;2.40;;
33794;SDS011;51430;52.242;21.118;2023-02-26T04:11:10;2.80;;;2.60;;
33794;SDS011;51430;52.242;21.118;2023-02-26T04:14:00;2.90;;;2.60;;
33794;SDS011;51430;52.242;21.118;2023-02-26T04:16:47;3.20;;;2.90;;
33794;SDS011;51430;52.242;21.118;2023-02-26T04:19:34;2.70;;;2.50;;
33794;SDS011;51430;52.242;21.118;2023-02-26T04:22:20;2.90;;;2.70;;
33794;SDS011;51430;52.242;21.118;2023-02-26T04:25:07;3.00;;;2.70;;
33794;SDS011;51430;52.242;21.118;2023-02-26T04:27:54;3.20;;;2.90;;
33794;SDS011;51430;52.242;21.118;2023-02-26T04:30:42;3.00;;;2.70;;
33794;SDS011;51430;52.242;21.118;2023-02-26T04:33:31;3.10;;;2.80;;
33794;SDS011;51430;52.242;21.118;2023-02-26T04:36:18;3.20;;;2.90;;
33794;SDS011;51430;52.242;21.118;2023-02-26T04:39:05;3.20;;;2.90;;
33794;SDS011;51430;52.242;21.118;2023-02-26T04:41:52;3.20;;;2.90;;
33794;SDS011;51430;52.242;21.118;2023-02-26T04:44:39;3.00;;;2.70;;
33794;SDS011;51430;52.242;21.118;2023-02-26T04:47:25;3.50;;;3.20;;
33794;SDS011;51430;52.242;21.118;2023-02-26T04:50:12;3.40;;;3.10;;
33794;SDS011;51430;52.242;21.118;2023-02-26T04:53:01;3.30;;;3.00;;
33794;SDS011;51430;52.242;21.118;2023-02-26T04:55:48;3.20;;;2.90;;
33794;SDS011;51430;52.242;21.118;2023-02-26T04:58:37;3.10;;;2.90;;
33794;SDS011;51430;52.242;21.118;2023-02-26T05:01:24;3.30;;;3.00;;
33794;SDS011;51430;52.242;21.118;2023-02-26T05:04:11;3.20;;;2.90;;
33794;SDS011;51430;52.242;21.118;2023-02-26T05:06:58;3.00;;;2.70;;
33794;SDS011;51430;52.242;21.118;2023-02-26T05:09:45;3.10;;;2.80;;
33794;SDS011;51430;52.242;21.118;2023-02-26T05:12:32;4.20;;;2.90;;
33794;SDS011;51430;52.242;21.118;2023-02-26T05:15:19;2.90;;;2.50;;
33794;SDS011;51430;52.242;21.118;2023-02-26T05:18:05;2.60;;;2.40;;
33794;SDS011;51430;52.242;21.118;2023-02-26T05:20:53;2.60;;;2.40;;
33794;SDS011;51430;52.242;21.118;2023-02-26T05:23:41;2.50;;;2.30;;
33794;SDS011;51430;52.242;21.118;2023-02-26T05:26:28;2.70;;;2.50;;
33794;SDS011;51430;52.242;21.118;2023-02-26T05:29:16;2.80;;;2.60;;
33794;SDS011;51430;52.242;21.118;2023-02-26T05:32:03;3.70;;;2.80;;
33794;SDS011;51430;52.242;21.118;2023-02-26T05:34:53;2.90;;;2.60;;
33794;SDS011;51430;52.242;21.118;2023-02-26T05:37:41;3.10;;;2.80;;
33794;SDS011;51430;52.242;21.118;2023-02-26T05:40:28;3.30;;;2.60;;
33794;SDS011;51430;52.242;21.118;2023-02-26T05:43:15;4.10;;;3.10;;
33794;SDS011;51430;52.242;21.118;2023-02-26T05:46:02;3.50;;;2.90;;
33794;SDS011;51430;52.242;21.118;2023-02-26T05:48:48;2.90;;;2.60;;
33794;SDS011;51430;52.242;21.118;2023-02-26T05:51:35;3.00;;;2.70;;
33794;SDS011;51430;52.242;21.118;2023-02-26T05:54:22;3.10;;;2.80;;
33794;SDS011;51430;52.242;21.118;2023-02-26T05:57:10;3.50;;;3.00;;
33794;SDS011;51430;52.242;21.118;2023-02-26T05:59:57;2.90;;;2.50;;
33794;SDS011;51430;52.242;21.118;2023-02-26T06:02:45;2.90;;;2.60;;
33794;SDS011;51430;52.242;21.118;2023-02-26T06:05:34;2.90;;;2.60;;
33794;SDS011;51430;52.242;21.118;2023-02-26T06:08:21;3.40;;;2.50;;
33794;SDS011;51430;52.242;21.118;2023-02-26T06:11:08;2.70;;;2.30;;
33794;SDS011;51430;52.242;21.118;2023-02-26T06:13:54;2.60;;;2.20;;
33794;SDS011;51430;52.242;21.118;2023-02-26T06:16:41;2.20;;;2.00;;
33794;SDS011;51430;52.242;21.118;2023-02-26T06:19:27;2.40;;;2.00;;
33794;SDS011;51430;52.242;21.118;2023-02-26T06:22:13;2.80;;;2.30;;
33794;SDS011;51430;52.242;21.118;2023-02-26T06:25:00;2.90;;;2.30;;
33794;SDS011;51430;52.242;21.118;2023-02-26T06:28:10;3.30;;;2.30;;
33794;SDS011;51430;52.242;21.118;2023-02-26T06:30:57;2.70;;;2.00;;
33794;SDS011;51430;52.242;21.118;2023-02-26T06:33:43;3.00;;;2.40;;
33794;SDS011;51430;52.242;21.118;2023-02-26T06:36:30;2.30;;;2.10;;
33794;SDS011;51430;52.242;21.118;2023-02-26T06:39:17;2.90;;;2.50;;
33794;SDS011;51430;52.242;21.118;2023-02-26T06:42:04;2.70;;;2.50;;
33794;SDS011;51430;52.242;21.118;2023-02-26T06:44:51;3.10;;;2.50;;
33794;SDS011;51430;52.242;21.118;2023-02-26T06:47:38;2.80;;;2.50;;
33794;SDS011;51430;52.242;21.118;2023-02-26T06:50:25;2.90;;;2.50;;
33794;SDS011;51430;52.242;21.118;2023-02-26T06:53:12;2.50;;;2.30;;
33794;SDS011;51430;52.242;21.118;2023-02-26T06:55:59;2.90;;;2.60;;
33794;SDS011;51430;52.242;21.118;2023-02-26T06:58:46;3.00;;;2.30;;
33794;SDS011;51430;52.242;21.118;2023-02-26T07:01:33;2.50;;;2.30;;
33794;SDS011;51430;52.242;21.118;2023-02-26T07:04:20;2.60;;;2.40;;
33794;SDS011;51430;52.242;21.118;2023-02-26T07:07:07;2.70;;;2.40;;
33794;SDS011;51430;52.242;21.118;2023-02-26T07:09:55;2.80;;;2.60;;
33794;SDS011;51430;52.242;21.118;2023-02-26T07:12:42;3.10;;;2.40;;
33794;SDS011;51430;52.242;21.118;2023-02-26T07:15:29;2.40;;;2.20;;
33794;SDS011;51430;52.242;21.118;2023-02-26T07:18:16;2.40;;;2.20;;
33794;SDS011;51430;52.242;21.118;2023-02-26T07:21:04;2.50;;;2.30;;
33794;SDS011;51430;52.242;21.118;2023-02-26T07:23:51;2.40;;;2.20;;
33794;SDS011;51430;52.242;21.118;2023-02-26T07:26:37;4.00;;;2.70;;
33794;SDS011;51430;52.242;21.118;2023-02-26T07:29:24;4.70;;;2.40;;
33794;SDS011;51430;52.242;21.118;2023-02-26T07:32:11;2.90;;;2.30;;
33794;SDS011;51430;52.242;21.118;2023-02-26T07:34:57;2.60;;;2.20;;
33794;SDS011;51430;52.242;21.118;2023-02-26T07:37:44;2.10;;;1.80;;
33794;SDS011;51430;52.242;21.118;2023-02-26T07:40:31;2.50;;;2.10;;
33794;SDS011;51430;52.242;21.118;2023-02-26T07:43:18;2.20;;;2.00;;
33794;SDS011;51430;52.242;21.118;2023-02-26T07:46:05;1.90;;;1.70;;
33794;SDS011;51430;52.242;21.118;2023-02-26T07:48:52;1.90;;;1.80;;
33794;SDS011;51430;52.242;21.118;2023-02-26T07:51:39;2.10;;;1.90;;
33794;SDS011;51430;52.242;21.118;2023-02-26T07:54:28;2.90;;;2.10;;
33794;SDS011;51430;52.242;21.118;2023-02-26T07:57:15;2.00;;;1.80;;
33794;SDS011;51430;52.242;21.118;2023-02-26T08:00:02;2.30;;;1.80;;
33794;SDS011;51430;52.242;21.118;2023-02-26T08:02:50;2.30;;;1.90;;
33794;SDS011;51430;52.242;21.118;2023-02-26T08:05:37;2.20;;;2.00;;
33794;SDS011;51430;52.242;21.118;2023-02-26T08:08:24;2.90;;;2.20;;
33794;SDS011;51430;52.242;21.118;2023-02-26T08:11:12;2.90;;;2.30;;
33794;SDS011;51430;52.242;21.118;2023-02-26T08:13:59;3.80;;;2.30;;
33794;SDS011;51430;52.242;21.118;2023-02-26T08:16:46;2.90;;;2.20;;
33794;SDS011;51430;52.242;21.118;2023-02-26T08:19:33;2.40;;;2.20;;
33794;SDS011;51430;52.242;21.118;2023-02-26T08:22:20;2.10;;;1.90;;
33794;SDS011;51430;52.242;21.118;2023-02-26T08:25:07;2.00;;;1.70;;
33794;SDS011;51430;52.242;21.118;2023-02-26T08:27:54;2.00;;;1.80;;
33794;SDS011;51430;52.242;21.118;2023-02-26T08:30:42;2.40;;;2.10;;
33794;SDS011;51430;52.242;21.118;2023-02-26T08:33:29;2.00;;;1.80;;
33794;SDS011;51430;52.242;21.118;2023-02-26T08:36:16;2.80;;;2.10;;
33794;SDS011;51430;52.242;21.118;2023-02-26T08:39:03;2.30;;;2.00;;
33794;SDS011;51430;52.242;21.118;2023-02-26T08:41:52;2.70;;;2.00;;
33794;SDS011;51430;52.242;21.118;2023-02-26T08:44:38;2.00;;;1.80;;
33794;SDS011;51430;52.242;21.118;2023-02-26T08:47:25;2.90;;;1.80;;
33794;SDS011;51430;52.242;21.118;2023-02-26T08:50:14;2.20;;;1.90;;
33794;SDS011;51430;52.242;21.118;2023-02-26T08:53:01;1.60;;;1.50;;
33794;SDS011;51430;52.242;21.118;2023-02-26T08:55:48;2.20;;;1.80;;
33794;SDS011;51430;52.242;21.118;2023-02-26T08:58:36;2.90;;;1.90;;
33794;SDS011;51430;52.242;21.118;2023-02-26T09:01:22;2.10;;;1.90;;
33794;SDS011;51430;52.242;21.118;2023-02-26T09:04:10;2.20;;;1.90;;
33794;SDS011;51430;52.242;21.118;2023-02-26T09:06:57;2.50;;;2.30;;
33794;SDS011;51430;52.242;21.118;2023-02-26T09:09:43;2.40;;;2.10;;
33794;SDS011;51430;52.242;21.118;2023-02-26T09:12:30;3.10;;;2.40;;
33794;SDS011;51430;52.242;21.118;2023-02-26T09:15:17;2.30;;;2.10;;
33794;SDS011;51430;52.242;21.118;2023-02-26T09:18:05;1.70;;;1.60;;
33794;SDS011;51430;52.242;21.118;2023-02-26T09:20:51;2.30;;;1.70;;
33794;SDS011;51430;52.242;21.118;2023-02-26T09:23:38;1.50;;;1.40;;
33794;SDS011;51430;52.242;21.118;2023-02-26T09:26:25;2.00;;;1.60;;
33794;SDS011;51430;52.242;21.118;2023-02-26T09:29:12;1.90;;;1.70;;
33794;SDS011;51430;52.242;21.118;2023-02-26T09:32:00;2.10;;;1.80;;
33794;SDS011;51430;52.242;21.118;2023-02-26T09:34:47;2.40;;;2.10;;
33794;SDS011;51430;52.242;21.118;2023-02-26T09:37:34;2.70;;;2.00;;
33794;SDS011;51430;52.242;21.118;2023-02-26T09:49:26;3.40;;;2.10;;
33794;SDS011;51430;52.242;21.118;2023-02-26T09:53:02;2.30;;;2.10;;
33794;SDS011;51430;52.242;21.118;2023-02-26T09:58:27;2.40;;;2.20;;
33794;SDS011;51430;52.242;21.118;2023-02-26T10:01:32;2.50;;;2.10;;
33794;SDS011;51430;52.242;21.118;2023-02-26T10:10:44;3.80;;;2.50;;
33794;SDS011;51430;52.242;21.118;2023-02-26T10:13:44;3.20;;;2.60;;
33794;SDS011;51430;52.242;21.118;2023-02-26T10:16:45;3.00;;;2.70;;
33794;SDS011;51430;52.242;21.118;2023-02-26T10:19:37;3.10;;;2.80;;
33794;SDS011;51430;52.242;21.118;2023-02-26T10:25:21;4.00;;;2.50;;
33794;SDS011;51430;52.242;21.118;2023-02-26T10:40:41;3.50;;;2.90;;
33794;SDS011;51430;52.242;21.118;2023-02-26T10:43:53;3.20;;;2.70;;
33794;SDS011;51430;52.242;21.118;2023-02-26T10:46:58;3.00;;;2.70;;
33794;SDS011;51430;52.242;21.118;2023-02-26T10:50:11;3.40;;;2.70;;
33794;SDS011;51430;52.242;21.118;2023-02-26T10:52:59;3.90;;;3.10;;
33794;SDS011;51430;52.242;21.118;2023-02-26T10:55:49;4.20;;;2.90;;
33794;SDS011;51430;52.242;21.118;2023-02-26T10:58:41;3.70;;;2.80;;
33794;SDS011;51430;52.242;21.118;2023-02-26T11:01:28;3.10;;;2.80;;
33794;SDS011;51430;52.242;21.118;2023-02-26T11:04:20;3.30;;;2.60;;
33794;SDS011;51430;52.242;21.118;2023-02-26T11:07:09;3.10;;;2.60;;
33794;SDS011;51430;52.242;21.118;2023-02-26T11:09:56;2.90;;;2.60;;
33794;SDS011;51430;52.242;21.118;2023-02-26T11:12:44;3.70;;;2.80;;
33794;SDS011;51430;52.242;21.118;2023-02-26T11:15:32;4.40;;;3.00;;
33794;SDS011;51430;52.242;21.118;2023-02-26T11:18:20;3.10;;;2.50;;
33794;SDS011;51430;52.242;21.118;2023-02-26T11:21:15;4.10;;;3.40;;
33794;SDS011;51430;52.242;21.118;2023-02-26T11:24:06;3.10;;;2.50;;
33794;SDS011;51430;52.242;21.118;2023-02-26T11:26:58;3.00;;;2.30;;
33794;SDS011;51430;52.242;21.118;2023-02-26T11:29:53;4.80;;;3.40;;
33794;SDS011;51430;52.242;21.118;2023-02-26T11:32:43;3.80;;;3.20;;
33794;SDS011;51430;52.242;21.118;2023-02-26T11:35:31;3.80;;;2.60;;
33794;SDS011;51430;52.242;21.118;2023-02-26T11:38:20;3.20;;;2.40;;
33794;SDS011;51430;52.242;21.118;2023-02-26T11:41:08;3.00;;;2.40;;
33794;SDS011;51430;52.242;21.118;2023-02-26T11:44:00;3.50;;;2.30;;
33794;SDS011;51430;52.242;21.118;2023-02-26T11:46:51;2.20;;;2.00;;
33794;SDS011;51430;52.242;21.118;2023-02-26T11:49:44;2.60;;;2.10;;
33794;SDS011;51430;52.242;21.118;2023-02-26T11:52:35;2.70;;;2.30;;
33794;SDS011;51430;52.242;21.118;2023-02-26T11:55:31;2.90;;;1.90;;
33794;SDS011;51430;52.242;21.118;2023-02-26T11:58:20;3.40;;;2.10;;
33794;SDS011;51430;52.242;21.118;2023-02-26T12:01:10;6.50;;;3.70;;
33794;SDS011;51430;52.242;21.118;2023-02-26T12:03:59;7.10;;;5.10;;
33794;SDS011;51430;52.242;21.118;2023-02-26T12:06:48;8.80;;;6.80;;
33794;SDS011;51430;52.242;21.118;2023-02-26T12:09:36;5.90;;;5.00;;
33794;SDS011;51430;52.242;21.118;2023-02-26T12:12:41;5.30;;;4.40;;
33794;SDS011;51430;52.242;21.118;2023-02-26T12:15:53;3.10;;;2.80;;
33794;SDS011;51430;52.242;21.118;2023-02-26T12:18:55;3.50;;;3.00;;
33794;SDS011;51430;52.242;21.118;2023-02-26T12:32:06;3.70;;;2.70;;
33794;SDS011;51430;52.242;21.118;2023-02-26T12:42:25;5.30;;;3.40;;
33794;SDS011;51430;52.242;21.118;2023-02-26T12:48:31;3.60;;;3.00;;
33794;SDS011;51430;52.242;21.118;2023-02-26T12:54:46;3.70;;;3.30;;
33794;SDS011;51430;52.242;21.118;2023-02-26T12:57:49;2.90;;;2.20;;
33794;SDS011;51430;52.242;21.118;2023-02-26T13:10:56;2.10;;;1.60;;
33794;SDS011;51430;52.242;21.118;2023-02-26T13:20:00;3.10;;;2.60;;
33794;SDS011;51430;52.242;21.118;2023-02-26T13:25:58;2.90;;;2.00;;
33794;SDS011;51430;52.242;21.118;2023-02-26T13:28:49;2.80;;;2.00;;
33794;SDS011;51430;52.242;21.118;2023-02-26T13:31:52;2.40;;;1.70;;
33794;SDS011;51430;52.242;21.118;2023-02-26T13:34:58;2.50;;;1.70;;
33794;SDS011;51430;52.242;21.118;2023-02-26T13:37:50;4.30;;;1.90;;
33794;SDS011;51430;52.242;21.118;2023-02-26T13:43:35;5.30;;;2.60;;
33794;SDS011;51430;52.242;21.118;2023-02-26T13:46:44;3.40;;;1.90;;
33794;SDS011;51430;52.242;21.118;2023-02-26T13:49:47;3.00;;;1.90;;
33794;SDS011;51430;52.242;21.118;2023-02-26T13:52:35;2.80;;;1.80;;
33794;SDS011;51430;52.242;21.118;2023-02-26T13:55:47;2.70;;;1.70;;
33794;SDS011;51430;52.242;21.118;2023-02-26T13:58:36;3.10;;;1.90;;
33794;SDS011;51430;52.242;21.118;2023-02-26T14:01:26;3.40;;;2.30;;
33794;SDS011;51430;52.242;21.118;2023-02-26T14:07:14;4.30;;;2.70;;
33794;SDS011;51430;52.242;21.118;2023-02-26T14:10:02;3.90;;;2.60;;
33794;SDS011;51430;52.242;21.118;2023-02-26T14:16:13;3.20;;;2.40;;
33794;SDS011;51430;52.242;21.118;2023-02-26T14:19:18;4.10;;;2.50;;
33794;SDS011;51430;52.242;21.118;2023-02-26T14:25:24;3.80;;;2.40;;
33794;SDS011;51430;52.242;21.118;2023-02-26T14:31:12;3.90;;;2.10;;
33794;SDS011;51430;52.242;21.118;2023-02-26T14:34:15;4.20;;;2.30;;
33794;SDS011;51430;52.242;21.118;2023-02-26T14:37:09;5.10;;;2.20;;
33794;SDS011;51430;52.242;21.118;2023-02-26T14:40:04;4.40;;;2.30;;
33794;SDS011;51430;52.242;21.118;2023-02-26T14:42:59;3.70;;;2.30;;
33794;SDS011;51430;52.242;21.118;2023-02-26T14:45:49;3.80;;;2.30;;
33794;SDS011;51430;52.242;21.118;2023-02-26T14:48:35;4.50;;;2.40;;
33794;SDS011;51430;52.242;21.118;2023-02-26T14:51:26;4.90;;;2.80;;
33794;SDS011;51430;52.242;21.118;2023-02-26T14:54:23;3.80;;;2.60;;
33794;SDS011;51430;52.242;21.118;2023-02-26T15:22:15;4.80;;;2.80;;
33794;SDS011;51430;52.242;21.118;2023-02-26T15:25:05;5.80;;;2.80;;
33794;SDS011;51430;52.242;21.118;2023-02-26T15:28:30;6.80;;;3.00;;
33794;SDS011;51430;52.242;21.118;2023-02-26T15:31:45;5.00;;;3.00;;
33794;SDS011;51430;52.242;21.118;2023-02-26T15:34:41;4.50;;;2.50;;
33794;SDS011;51430;52.242;21.118;2023-02-26T15:37:32;5.50;;;3.10;;
33794;SDS011;51430;52.242;21.118;2023-02-26T15:40:20;5.40;;;4.40;;
33794;SDS011;51430;52.242;21.118;2023-02-26T15:43:07;6.60;;;4.20;;
33794;SDS011;51430;52.242;21.118;2023-02-26T15:45:59;6.30;;;4.20;;
33794;SDS011;51430;52.242;21.118;2023-02-26T15:48:48;6.70;;;4.40;;
33794;SDS011;51430;52.242;21.118;2023-02-26T15:51:38;6.00;;;4.00;;
33794;SDS011;51430;52.242;21.118;2023-02-26T15:54:27;5.90;;;4.20;;
33794;SDS011;51430;52.242;21.118;2023-02-26T15:57:19;7.00;;;4.80;;
33794;SDS011;51430;52.242;21.118;2023-02-26T16:00:12;6.60;;;5.10;;
33794;SDS011;51430;52.242;21.118;2023-02-26T16:03:02;7.90;;;5.40;;
33794;SDS011;51430;52.242;21.118;2023-02-26T16:05:50;7.10;;;5.10;;
33794;SDS011;51430;52.242;21.118;2023-02-26T16:08:44;6.10;;;4.60;;
33794;SDS011;51430;52.242;21.118;2023-02-26T16:11:33;7.70;;;4.20;;
33794;SDS011;51430;52.242;21.118;2023-02-26T16:14:25;6.30;;;3.90;;
33794;SDS011;51430;52.242;21.118;2023-02-26T16:17:23;6.50;;;4.40;;
33794;SDS011;51430;52.242;21.118;2023-02-26T16:20:17;5.20;;;4.10;;
33794;SDS011;51430;52.242;21.118;2023-02-26T16:23:13;6.40;;;3.90;;
33794;SDS011;51430;52.242;21.118;2023-02-26T16:26:04;6.70;;;4.10;;
33794;SDS011;51430;52.242;21.118;2023-02-26T16:28:55;7.50;;;3.90;;
33794;SDS011;51430;52.242;21.118;2023-02-26T16:31:46;6.50;;;4.00;;
33794;SDS011;51430;52.242;21.118;2023-02-26T16:34:40;7.00;;;4.10;;
33794;SDS011;51430;52.242;21.118;2023-02-26T16:40:26;9.30;;;4.80;;
33794;SDS011;51430;52.242;21.118;2023-02-26T16:49:20;10.10;;;5.70;;
33794;SDS011;51430;52.242;21.118;2023-02-26T16:52:28;11.60;;;6.00;;
33794;SDS011;51430;52.242;21.118;2023-02-26T16:55:15;7.80;;;5.30;;
33794;SDS011;51430;52.242;21.118;2023-02-26T16:58:05;8.60;;;5.40;;
33794;SDS011;51430;52.242;21.118;2023-02-26T17:01:08;8.70;;;5.80;;
33794;SDS011;51430;52.242;21.118;2023-02-26T17:04:01;9.80;;;6.40;;
33794;SDS011;51430;52.242;21.118;2023-02-26T17:06:50;9.80;;;6.20;;
33794;SDS011;51430;52.242;21.118;2023-02-26T17:09:38;10.60;;;6.20;;
33794;SDS011;51430;52.242;21.118;2023-02-26T17:12:37;10.70;;;6.70;;
33794;SDS011;51430;52.242;21.118;2023-02-26T17:15:35;10.10;;;6.80;;
33794;SDS011;51430;52.242;21.118;2023-02-26T17:18:26;9.70;;;6.10;;
33794;SDS011;51430;52.242;21.118;2023-02-26T17:21:14;13.30;;;7.10;;
33794;SDS011;51430;52.242;21.118;2023-02-26T17:24:04;10.50;;;7.30;;
33794;SDS011;51430;52.242;21.118;2023-02-26T17:26:51;12.40;;;7.60;;
33794;SDS011;51430;52.242;21.118;2023-02-26T17:29:39;11.60;;;7.50;;
33794;SDS011;51430;52.242;21.118;2023-02-26T17:32:28;12.00;;;8.00;;
33794;SDS011;51430;52.242;21.118;2023-02-26T17:35:17;14.00;;;11.00;;
33794;SDS011;51430;52.242;21.118;2023-02-26T17:38:04;12.10;;;8.70;;
33794;SDS011;51430;52.242;21.118;2023-02-26T17:40:55;12.60;;;8.60;;
33794;SDS011;51430;52.242;21.118;2023-02-26T17:43:43;10.10;;;7.80;;
33794;SDS011;51430;52.242;21.118;2023-02-26T17:46:30;13.50;;;7.60;;
33794;SDS011;51430;52.242;21.118;2023-02-26T17:49:17;10.30;;;7.30;;
33794;SDS011;51430;52.242;21.118;2023-02-26T17:52:06;12.00;;;7.70;;
33794;SDS011;51430;52.242;21.118;2023-02-26T17:54:53;15.00;;;9.40;;
33794;SDS011;51430;52.242;21.118;2023-02-26T17:57:41;13.60;;;9.00;;
33794;SDS011;51430;52.242;21.118;2023-02-26T18:00:28;15.40;;;9.30;;
33794;SDS011;51430;52.242;21.118;2023-02-26T18:03:14;16.80;;;10.10;;
33794;SDS011;51430;52.242;21.118;2023-02-26T18:06:01;14.60;;;9.10;;
33794;SDS011;51430;52.242;21.118;2023-02-26T18:08:51;15.90;;;10.50;;
33794;SDS011;51430;52.242;21.118;2023-02-26T18:11:39;16.20;;;11.20;;
33794;SDS011;51430;52.242;21.118;2023-02-26T18:14:27;17.10;;;10.80;;
33794;SDS011;51430;52.242;21.118;2023-02-26T18:17:21;17.70;;;10.80;;
33794;SDS011;51430;52.242;21.118;2023-02-26T18:20:24;16.60;;;11.40;;
33794;SDS011;51430;52.242;21.118;2023-02-26T18:23:12;19.80;;;12.90;;
33794;SDS011;51430;52.242;21.118;2023-02-26T18:26:01;22.10;;;13.50;;
33794;SDS011;51430;52.242;21.118;2023-02-26T18:28:48;26.50;;;17.20;;
33794;SDS011;51430;52.242;21.118;2023-02-26T18:31:36;30.90;;;20.90;;
33794;SDS011;51430;52.242;21.118;2023-02-26T18:34:25;31.90;;;20.70;;
33794;SDS011;51430;52.242;21.118;2023-02-26T18:37:15;32.70;;;22.70;;
33794;SDS011;51430;52.242;21.118;2023-02-26T18:40:04;39.10;;;25.90;;
33794;SDS011;51430;52.242;21.118;2023-02-26T18:42:51;33.10;;;23.30;;
33794;SDS011;51430;52.242;21.118;2023-02-26T18:45:39;31.80;;;21.30;;
33794;SDS011;51430;52.242;21.118;2023-02-26T18:48:26;29.70;;;20.50;;
33794;SDS011;51430;52.242;21.118;2023-02-26T18:51:14;30.00;;;20.20;;
33794;SDS011;51430;52.242;21.118;2023-02-26T18:54:00;33.90;;;23.40;;
33794;SDS011;51430;52.242;21.118;2023-02-26T18:56:47;38.80;;;26.10;;
33794;SDS011;51430;52.242;21.118;2023-02-26T18:59:34;39.30;;;26.50;;
33794;SDS011;51430;52.242;21.118;2023-02-26T19:02:21;36.90;;;25.50;;
33794;SDS011;51430;52.242;21.118;2023-02-26T19:05:09;36.60;;;25.60;;
33794;SDS011;51430;52.242;21.118;2023-02-26T19:07:57;33.60;;;24.70;;
33794;SDS011;51430;52.242;21.118;2023-02-26T19:10:44;31.00;;;23.10;;
33794;SDS011;51430;52.242;21.118;2023-02-26T19:13:31;36.60;;;23.20;;
33794;SDS011;51430;52.242;21.118;2023-02-26T19:16:18;51.10;;;26.00;;
33794;SDS011;51430;52.242;21.118;2023-02-26T19:19:08;63.90;;;26.80;;
33794;SDS011;51430;52.242;21.118;2023-02-26T19:21:57;107.10;;;44.40;;